sensor_id;sensor_type;location;lat;lon;timestamp;P1;durP1;ratioP1;P2;durP2;ratioP2
7440;SDS011;29616;51.950;8.572;2022-09-28T00:01:13;17.80;;;7.72;;
7440;SDS011;29616;51.950;8.572;2022-09-28T00:03:43;19.43;;;8.70;;
7440;SDS011;29616;51.950;8.572;2022-09-28T00:06:14;18.08;;;7.78;;
7440;SDS011;29616;51.950;8.572;2022-09-28T00:08:45;16.77;;;7.20;;
7440;SDS011;29616;51.950;8.572;2022-09-28T00:11:16;18.15;;;8.35;;
7440;SDS011;29616;51.950;8.572;2022-09-28T00:13:47;17.65;;;8.27;;
7440;SDS011;29616;51.950;8.572;2022-09-28T00:16:18;20.92;;;8.65;;
7440;SDS011;29616;51.950;8.572;2022-09-28T00:18:49;25.88;;;8.07;;
7440;SDS011;29616;51.950;8.572;2022-09-28T00:21:19;24.45;;;8.73;;
7440;SDS011;29616;51.950;8.572;2022-09-28T00:23:52;12.35;;;6.72;;
7440;SDS011;29616;51.950;8.572;2022-09-28T00:26:42;18.40;;;7.78;;
7440;SDS011;29616;51.950;8.572;2022-09-28T00:29:18;21.50;;;8.20;;
7440;SDS011;29616;51.950;8.572;2022-09-28T00:31:50;18.38;;;7.25;;
7440;SDS011;29616;51.950;8.572;2022-09-28T00:34:22;18.05;;;7.32;;
7440;SDS011;29616;51.950;8.572;2022-09-28T00:36:52;16.30;;;7.68;;
7440;SDS011;29616;51.950;8.572;2022-09-28T00:39:20;20.10;;;6.93;;
7440;SDS011;29616;51.950;8.572;2022-09-28T00:41:49;20.23;;;8.10;;
7440;SDS011;29616;51.950;8.572;2022-09-28T00:47:15;18.92;;;6.97;;
7440;SDS011;29616;51.950;8.572;2022-09-28T00:50:17;11.43;;;6.25;;
7440;SDS011;29616;51.950;8.572;2022-09-28T00:52:56;21.10;;;9.00;;
7440;SDS011;29616;51.950;8.572;2022-09-28T00:55:29;16.75;;;7.25;;
7440;SDS011;29616;51.950;8.572;2022-09-28T00:58:04;15.98;;;7.60;;
7440;SDS011;29616;51.950;8.572;2022-09-28T01:00:35;18.10;;;6.82;;
7440;SDS011;29616;51.950;8.572;2022-09-28T01:03:06;17.08;;;7.70;;
7440;SDS011;29616;51.950;8.572;2022-09-28T01:05:34;22.02;;;7.30;;
7440;SDS011;29616;51.950;8.572;2022-09-28T01:08:07;18.63;;;8.17;;
7440;SDS011;29616;51.950;8.572;2022-09-28T01:10:38;18.83;;;7.30;;
7440;SDS011;29616;51.950;8.572;2022-09-28T01:13:08;26.58;;;12.30;;
7440;SDS011;29616;51.950;8.572;2022-09-28T01:15:38;16.13;;;6.53;;
7440;SDS011;29616;51.950;8.572;2022-09-28T01:18:17;21.10;;;7.30;;
7440;SDS011;29616;51.950;8.572;2022-09-28T01:20:56;12.18;;;6.20;;
7440;SDS011;29616;51.950;8.572;2022-09-28T01:29:45;12.73;;;6.20;;
7440;SDS011;29616;51.950;8.572;2022-09-28T01:32:24;14.25;;;6.75;;
7440;SDS011;29616;51.950;8.572;2022-09-28T01:35:03;15.52;;;6.82;;
7440;SDS011;29616;51.950;8.572;2022-09-28T01:37:38;16.80;;;6.50;;
7440;SDS011;29616;51.950;8.572;2022-09-28T01:40:15;11.00;;;6.07;;
7440;SDS011;29616;51.950;8.572;2022-09-28T01:42:47;14.07;;;6.13;;
7440;SDS011;29616;51.950;8.572;2022-09-28T01:45:21;15.07;;;6.55;;
7440;SDS011;29616;51.950;8.572;2022-09-28T01:47:54;13.82;;;6.53;;
7440;SDS011;29616;51.950;8.572;2022-09-28T01:50:28;16.48;;;6.72;;
7440;SDS011;29616;51.950;8.572;2022-09-28T01:53:02;13.88;;;5.93;;
7440;SDS011;29616;51.950;8.572;2022-09-28T01:55:38;12.57;;;5.80;;
7440;SDS011;29616;51.950;8.572;2022-09-28T01:58:13;16.73;;;6.57;;
7440;SDS011;29616;51.950;8.572;2022-09-28T02:00:52;11.52;;;6.35;;
7440;SDS011;29616;51.950;8.572;2022-09-28T02:03:28;18.58;;;6.63;;
7440;SDS011;29616;51.950;8.572;2022-09-28T02:06:04;14.80;;;6.97;;
7440;SDS011;29616;51.950;8.572;2022-09-28T02:08:38;12.50;;;6.00;;
7440;SDS011;29616;51.950;8.572;2022-09-28T02:11:13;11.15;;;5.13;;
7440;SDS011;29616;51.950;8.572;2022-09-28T02:13:46;7.40;;;3.65;;
7440;SDS011;29616;51.950;8.572;2022-09-28T02:16:21;9.43;;;3.92;;
7440;SDS011;29616;51.950;8.572;2022-09-28T02:18:58;7.57;;;4.38;;
7440;SDS011;29616;51.950;8.572;2022-09-28T02:21:28;8.68;;;4.00;;
7440;SDS011;29616;51.950;8.572;2022-09-28T02:24:05;7.03;;;3.85;;
7440;SDS011;29616;51.950;8.572;2022-09-28T02:26:46;8.40;;;3.50;;
7440;SDS011;29616;51.950;8.572;2022-09-28T02:29:18;7.38;;;3.65;;
7440;SDS011;29616;51.950;8.572;2022-09-28T02:31:46;6.32;;;3.70;;
7440;SDS011;29616;51.950;8.572;2022-09-28T02:34:15;7.65;;;3.90;;
7440;SDS011;29616;51.950;8.572;2022-09-28T02:36:44;7.32;;;3.33;;
7440;SDS011;29616;51.950;8.572;2022-09-28T02:39:13;7.82;;;4.20;;
7440;SDS011;29616;51.950;8.572;2022-09-28T02:41:49;9.45;;;4.18;;
7440;SDS011;29616;51.950;8.572;2022-09-28T02:44:33;7.10;;;3.55;;
7440;SDS011;29616;51.950;8.572;2022-09-28T02:47:20;9.48;;;4.03;;
7440;SDS011;29616;51.950;8.572;2022-09-28T02:50:06;8.93;;;3.95;;
7440;SDS011;29616;51.950;8.572;2022-09-28T02:52:51;10.50;;;3.90;;
7440;SDS011;29616;51.950;8.572;2022-09-28T02:55:48;7.80;;;4.13;;
7440;SDS011;29616;51.950;8.572;2022-09-28T02:58:33;8.52;;;3.97;;
7440;SDS011;29616;51.950;8.572;2022-09-28T03:01:16;9.40;;;4.47;;
7440;SDS011;29616;51.950;8.572;2022-09-28T03:03:56;9.02;;;4.32;;
7440;SDS011;29616;51.950;8.572;2022-09-28T03:06:36;11.85;;;4.53;;
7440;SDS011;29616;51.950;8.572;2022-09-28T03:09:12;10.68;;;4.78;;
7440;SDS011;29616;51.950;8.572;2022-09-28T03:11:50;11.88;;;5.22;;
7440;SDS011;29616;51.950;8.572;2022-09-28T03:14:22;11.10;;;4.60;;
7440;SDS011;29616;51.950;8.572;2022-09-28T03:16:55;12.27;;;4.55;;
7440;SDS011;29616;51.950;8.572;2022-09-28T03:19:25;10.50;;;4.63;;
7440;SDS011;29616;51.950;8.572;2022-09-28T03:21:58;13.43;;;4.72;;
7440;SDS011;29616;51.950;8.572;2022-09-28T03:24:27;9.52;;;4.35;;
7440;SDS011;29616;51.950;8.572;2022-09-28T03:26:55;12.32;;;5.57;;
7440;SDS011;29616;51.950;8.572;2022-09-28T03:29:23;13.13;;;5.68;;
7440;SDS011;29616;51.950;8.572;2022-09-28T03:31:58;15.40;;;5.85;;
7440;SDS011;29616;51.950;8.572;2022-09-28T03:34:27;14.23;;;5.70;;
7440;SDS011;29616;51.950;8.572;2022-09-28T03:36:55;14.05;;;5.30;;
7440;SDS011;29616;51.950;8.572;2022-09-28T03:39:23;16.77;;;5.88;;
7440;SDS011;29616;51.950;8.572;2022-09-28T03:41:51;13.38;;;5.78;;
7440;SDS011;29616;51.950;8.572;2022-09-28T03:44:20;20.63;;;7.22;;
7440;SDS011;29616;51.950;8.572;2022-09-28T03:46:48;25.00;;;7.88;;
7440;SDS011;29616;51.950;8.572;2022-09-28T03:49:18;26.38;;;8.05;;
7440;SDS011;29616;51.950;8.572;2022-09-28T03:51:48;27.47;;;8.80;;
7440;SDS011;29616;51.950;8.572;2022-09-28T03:54:16;30.17;;;8.85;;
7440;SDS011;29616;51.950;8.572;2022-09-28T03:56:44;26.65;;;8.68;;
7440;SDS011;29616;51.950;8.572;2022-09-28T03:59:12;30.27;;;8.55;;
7440;SDS011;29616;51.950;8.572;2022-09-28T04:01:40;31.40;;;9.35;;
7440;SDS011;29616;51.950;8.572;2022-09-28T04:04:10;32.30;;;9.25;;
7440;SDS011;29616;51.950;8.572;2022-09-28T04:06:40;31.05;;;9.30;;
7440;SDS011;29616;51.950;8.572;2022-09-28T04:09:08;27.48;;;8.75;;
7440;SDS011;29616;51.950;8.572;2022-09-28T04:11:37;32.42;;;9.13;;
7440;SDS011;29616;51.950;8.572;2022-09-28T04:14:25;31.00;;;9.13;;
7440;SDS011;29616;51.950;8.572;2022-09-28T04:16:53;29.02;;;8.15;;
7440;SDS011;29616;51.950;8.572;2022-09-28T04:19:23;28.50;;;9.93;;
7440;SDS011;29616;51.950;8.572;2022-09-28T04:22:06;37.83;;;9.50;;
7440;SDS011;29616;51.950;8.572;2022-09-28T04:24:34;31.17;;;9.00;;
7440;SDS011;29616;51.950;8.572;2022-09-28T04:27:02;29.83;;;9.27;;
7440;SDS011;29616;51.950;8.572;2022-09-28T04:29:48;35.80;;;9.35;;
7440;SDS011;29616;51.950;8.572;2022-09-28T04:32:16;34.13;;;9.10;;
7440;SDS011;29616;51.950;8.572;2022-09-28T04:34:44;34.47;;;10.52;;
7440;SDS011;29616;51.950;8.572;2022-09-28T04:37:14;35.50;;;9.43;;
7440;SDS011;29616;51.950;8.572;2022-09-28T04:39:42;33.17;;;9.05;;
7440;SDS011;29616;51.950;8.572;2022-09-28T04:42:16;46.97;;;9.63;;
7440;SDS011;29616;51.950;8.572;2022-09-28T04:44:44;45.35;;;9.68;;
7440;SDS011;29616;51.950;8.572;2022-09-28T04:47:12;42.83;;;11.40;;
7440;SDS011;29616;51.950;8.572;2022-09-28T04:49:58;46.97;;;10.85;;
7440;SDS011;29616;51.950;8.572;2022-09-28T04:52:31;45.05;;;11.48;;
7440;SDS011;29616;51.950;8.572;2022-09-28T04:55:02;51.17;;;11.15;;
7440;SDS011;29616;51.950;8.572;2022-09-28T04:57:32;60.33;;;15.07;;
7440;SDS011;29616;51.950;8.572;2022-09-28T05:00:01;51.75;;;12.02;;
7440;SDS011;29616;51.950;8.572;2022-09-28T05:02:33;62.97;;;15.38;;
7440;SDS011;29616;51.950;8.572;2022-09-28T05:05:08;57.20;;;14.32;;
7440;SDS011;29616;51.950;8.572;2022-09-28T05:07:57;59.42;;;14.30;;
7440;SDS011;29616;51.950;8.572;2022-09-28T05:10:25;84.30;;;15.38;;
7440;SDS011;29616;51.950;8.572;2022-09-28T05:12:53;59.55;;;14.65;;
7440;SDS011;29616;51.950;8.572;2022-09-28T05:15:22;81.93;;;17.25;;
7440;SDS011;29616;51.950;8.572;2022-09-28T05:17:51;65.53;;;16.73;;
7440;SDS011;29616;51.950;8.572;2022-09-28T05:20:27;77.55;;;18.10;;
7440;SDS011;29616;51.950;8.572;2022-09-28T05:22:57;64.35;;;14.80;;
7440;SDS011;29616;51.950;8.572;2022-09-28T05:25:25;64.78;;;16.73;;
7440;SDS011;29616;51.950;8.572;2022-09-28T05:28:02;63.20;;;15.55;;
7440;SDS011;29616;51.950;8.572;2022-09-28T05:30:48;68.35;;;15.90;;
7440;SDS011;29616;51.950;8.572;2022-09-28T05:33:40;69.68;;;18.50;;
7440;SDS011;29616;51.950;8.572;2022-09-28T05:36:10;55.90;;;14.35;;
7440;SDS011;29616;51.950;8.572;2022-09-28T05:38:41;58.10;;;15.23;;
7440;SDS011;29616;51.950;8.572;2022-09-28T05:41:09;59.45;;;16.20;;
7440;SDS011;29616;51.950;8.572;2022-09-28T05:43:37;60.40;;;16.77;;
7440;SDS011;29616;51.950;8.572;2022-09-28T05:46:06;67.03;;;16.33;;
7440;SDS011;29616;51.950;8.572;2022-09-28T05:48:37;63.90;;;17.43;;
7440;SDS011;29616;51.950;8.572;2022-09-28T05:51:05;73.05;;;18.60;;
7440;SDS011;29616;51.950;8.572;2022-09-28T05:53:35;75.50;;;17.85;;
7440;SDS011;29616;51.950;8.572;2022-09-28T05:56:05;69.72;;;17.20;;
7440;SDS011;29616;51.950;8.572;2022-09-28T05:58:35;73.10;;;18.10;;
7440;SDS011;29616;51.950;8.572;2022-09-28T06:01:03;65.88;;;16.48;;
7440;SDS011;29616;51.950;8.572;2022-09-28T06:03:31;75.13;;;18.10;;
7440;SDS011;29616;51.950;8.572;2022-09-28T06:05:59;78.20;;;17.83;;
7440;SDS011;29616;51.950;8.572;2022-09-28T06:08:29;51.33;;;14.52;;
7440;SDS011;29616;51.950;8.572;2022-09-28T06:11:19;65.93;;;16.33;;
7440;SDS011;29616;51.950;8.572;2022-09-28T06:13:51;49.53;;;14.15;;
7440;SDS011;29616;51.950;8.572;2022-09-28T06:16:20;66.53;;;16.55;;
7440;SDS011;29616;51.950;8.572;2022-09-28T06:18:50;64.05;;;17.27;;
7440;SDS011;29616;51.950;8.572;2022-09-28T06:21:33;58.50;;;15.35;;
7440;SDS011;29616;51.950;8.572;2022-09-28T06:24:02;63.92;;;16.40;;
7440;SDS011;29616;51.950;8.572;2022-09-28T06:26:32;80.43;;;17.52;;
7440;SDS011;29616;51.950;8.572;2022-09-28T06:29:00;66.72;;;17.92;;
7440;SDS011;29616;51.950;8.572;2022-09-28T06:31:28;81.88;;;18.67;;
7440;SDS011;29616;51.950;8.572;2022-09-28T06:33:57;60.78;;;17.55;;
7440;SDS011;29616;51.950;8.572;2022-09-28T06:36:27;75.53;;;17.35;;
7440;SDS011;29616;51.950;8.572;2022-09-28T06:38:56;72.95;;;16.27;;
7440;SDS011;29616;51.950;8.572;2022-09-28T06:41:24;48.25;;;14.68;;
7440;SDS011;29616;51.950;8.572;2022-09-28T06:43:58;62.42;;;15.02;;
7440;SDS011;29616;51.950;8.572;2022-09-28T06:46:45;68.43;;;16.85;;
7440;SDS011;29616;51.950;8.572;2022-09-28T06:49:34;51.58;;;14.25;;
7440;SDS011;29616;51.950;8.572;2022-09-28T06:52:22;55.30;;;15.00;;
7440;SDS011;29616;51.950;8.572;2022-09-28T06:55:02;53.10;;;15.80;;
7440;SDS011;29616;51.950;8.572;2022-09-28T06:57:42;65.38;;;16.23;;
7440;SDS011;29616;51.950;8.572;2022-09-28T07:00:12;64.65;;;17.65;;
7440;SDS011;29616;51.950;8.572;2022-09-28T07:02:44;68.03;;;16.90;;
7440;SDS011;29616;51.950;8.572;2022-09-28T07:05:30;53.15;;;14.77;;
7440;SDS011;29616;51.950;8.572;2022-09-28T07:08:21;54.20;;;14.85;;
7440;SDS011;29616;51.950;8.572;2022-09-28T07:11:03;59.38;;;14.55;;
7440;SDS011;29616;51.950;8.572;2022-09-28T07:13:41;54.53;;;13.18;;
7440;SDS011;29616;51.950;8.572;2022-09-28T07:16:21;64.32;;;15.20;;
7440;SDS011;29616;51.950;8.572;2022-09-28T07:19:00;45.40;;;13.02;;
7440;SDS011;29616;51.950;8.572;2022-09-28T07:21:28;44.33;;;13.25;;
7440;SDS011;29616;51.950;8.572;2022-09-28T07:24:01;57.22;;;14.93;;
7440;SDS011;29616;51.950;8.572;2022-09-28T07:26:47;55.72;;;15.30;;
7440;SDS011;29616;51.950;8.572;2022-09-28T07:29:44;67.03;;;16.15;;
7440;SDS011;29616;51.950;8.572;2022-09-28T07:32:36;56.22;;;15.13;;
7440;SDS011;29616;51.950;8.572;2022-09-28T07:35:16;49.50;;;13.50;;
7440;SDS011;29616;51.950;8.572;2022-09-28T07:37:48;54.45;;;14.77;;
7440;SDS011;29616;51.950;8.572;2022-09-28T07:40:23;58.55;;;15.30;;
7440;SDS011;29616;51.950;8.572;2022-09-28T07:43:14;55.22;;;14.88;;
7440;SDS011;29616;51.950;8.572;2022-09-28T07:45:49;55.13;;;14.52;;
7440;SDS011;29616;51.950;8.572;2022-09-28T07:51:08;46.08;;;13.05;;
7440;SDS011;29616;51.950;8.572;2022-09-28T07:53:43;59.78;;;16.08;;
7440;SDS011;29616;51.950;8.572;2022-09-28T07:56:32;44.67;;;15.48;;
7440;SDS011;29616;51.950;8.572;2022-09-28T07:59:25;60.83;;;15.20;;
7440;SDS011;29616;51.950;8.572;2022-09-28T08:02:12;64.53;;;15.63;;
7440;SDS011;29616;51.950;8.572;2022-09-28T08:04:42;64.30;;;16.77;;
7440;SDS011;29616;51.950;8.572;2022-09-28T08:07:10;50.13;;;14.13;;
7440;SDS011;29616;51.950;8.572;2022-09-28T08:09:39;39.30;;;11.65;;
7440;SDS011;29616;51.950;8.572;2022-09-28T08:12:27;61.38;;;16.00;;
7440;SDS011;29616;51.950;8.572;2022-09-28T08:15:31;50.47;;;13.75;;
7440;SDS011;29616;51.950;8.572;2022-09-28T08:18:10;62.13;;;15.35;;
7440;SDS011;29616;51.950;8.572;2022-09-28T08:20:39;57.40;;;14.32;;
7440;SDS011;29616;51.950;8.572;2022-09-28T08:23:25;45.65;;;13.48;;
7440;SDS011;29616;51.950;8.572;2022-09-28T08:25:53;45.75;;;13.70;;
7440;SDS011;29616;51.950;8.572;2022-09-28T08:28:22;56.47;;;15.60;;
7440;SDS011;29616;51.950;8.572;2022-09-28T08:30:57;53.85;;;15.50;;
7440;SDS011;29616;51.950;8.572;2022-09-28T08:33:29;46.88;;;13.88;;
7440;SDS011;29616;51.950;8.572;2022-09-28T08:36:17;60.63;;;16.85;;
7440;SDS011;29616;51.950;8.572;2022-09-28T08:38:52;46.42;;;14.52;;
7440;SDS011;29616;51.950;8.572;2022-09-28T08:41:23;52.17;;;15.32;;
7440;SDS011;29616;51.950;8.572;2022-09-28T08:44:20;57.28;;;15.80;;
7440;SDS011;29616;51.950;8.572;2022-09-28T08:47:04;44.15;;;13.75;;
7440;SDS011;29616;51.950;8.572;2022-09-28T08:50:19;35.45;;;12.60;;
7440;SDS011;29616;51.950;8.572;2022-09-28T08:53:15;43.90;;;13.05;;
7440;SDS011;29616;51.950;8.572;2022-09-28T08:56:25;47.00;;;12.88;;
7440;SDS011;29616;51.950;8.572;2022-09-28T08:59:00;50.15;;;14.70;;
7440;SDS011;29616;51.950;8.572;2022-09-28T09:01:32;47.83;;;14.32;;
7440;SDS011;29616;51.950;8.572;2022-09-28T09:04:11;44.45;;;11.60;;
7440;SDS011;29616;51.950;8.572;2022-09-28T09:07:06;41.30;;;13.45;;
7440;SDS011;29616;51.950;8.572;2022-09-28T09:10:10;34.22;;;11.85;;
7440;SDS011;29616;51.950;8.572;2022-09-28T09:12:57;39.35;;;12.50;;
7440;SDS011;29616;51.950;8.572;2022-09-28T09:15:43;37.15;;;11.38;;
7440;SDS011;29616;51.950;8.572;2022-09-28T09:18:53;29.02;;;10.52;;
7440;SDS011;29616;51.950;8.572;2022-09-28T09:21:39;29.73;;;10.88;;
7440;SDS011;29616;51.950;8.572;2022-09-28T09:24:16;27.58;;;12.00;;
7440;SDS011;29616;51.950;8.572;2022-09-28T09:26:58;33.45;;;11.35;;
7440;SDS011;29616;51.950;8.572;2022-09-28T09:29:45;28.20;;;11.32;;
7440;SDS011;29616;51.950;8.572;2022-09-28T09:32:34;24.00;;;10.00;;
7440;SDS011;29616;51.950;8.572;2022-09-28T09:35:26;19.80;;;9.05;;
7440;SDS011;29616;51.950;8.572;2022-09-28T09:38:48;18.58;;;8.48;;
7440;SDS011;29616;51.950;8.572;2022-09-28T09:41:51;25.08;;;9.90;;
7440;SDS011;29616;51.950;8.572;2022-09-28T09:45:02;19.08;;;8.52;;
7440;SDS011;29616;51.950;8.572;2022-09-28T09:48:29;22.67;;;9.77;;
7440;SDS011;29616;51.950;8.572;2022-09-28T09:51:05;21.02;;;8.45;;
7440;SDS011;29616;51.950;8.572;2022-09-28T09:53:44;12.88;;;6.07;;
7440;SDS011;29616;51.950;8.572;2022-09-28T09:56:19;17.30;;;8.27;;
7440;SDS011;29616;51.950;8.572;2022-09-28T09:59:12;16.85;;;8.05;;
7440;SDS011;29616;51.950;8.572;2022-09-28T10:02:11;24.52;;;9.38;;
7440;SDS011;29616;51.950;8.572;2022-09-28T10:05:23;13.50;;;6.78;;
7440;SDS011;29616;51.950;8.572;2022-09-28T10:07:55;7.35;;;3.17;;
7440;SDS011;29616;51.950;8.572;2022-09-28T10:10:32;6.35;;;3.47;;
7440;SDS011;29616;51.950;8.572;2022-09-28T10:13:07;11.68;;;5.50;;
7440;SDS011;29616;51.950;8.572;2022-09-28T10:15:38;11.88;;;5.53;;
7440;SDS011;29616;51.950;8.572;2022-09-28T10:18:18;9.02;;;5.00;;
7440;SDS011;29616;51.950;8.572;2022-09-28T10:21:10;8.25;;;4.95;;
7440;SDS011;29616;51.950;8.572;2022-09-28T10:23:53;11.65;;;5.95;;
7440;SDS011;29616;51.950;8.572;2022-09-28T10:26:28;10.18;;;5.47;;
7440;SDS011;29616;51.950;8.572;2022-09-28T10:29:03;8.77;;;5.53;;
7440;SDS011;29616;51.950;8.572;2022-09-28T10:31:42;11.88;;;6.35;;
7440;SDS011;29616;51.950;8.572;2022-09-28T10:34:25;8.85;;;5.00;;
7440;SDS011;29616;51.950;8.572;2022-09-28T10:37:01;11.02;;;6.07;;
7440;SDS011;29616;51.950;8.572;2022-09-28T10:39:53;12.13;;;6.35;;
7440;SDS011;29616;51.950;8.572;2022-09-28T10:42:25;10.82;;;6.40;;
7440;SDS011;29616;51.950;8.572;2022-09-28T10:44:59;11.07;;;6.28;;
7440;SDS011;29616;51.950;8.572;2022-09-28T10:47:36;14.55;;;7.03;;
7440;SDS011;29616;51.950;8.572;2022-09-28T10:50:13;12.75;;;5.45;;
7440;SDS011;29616;51.950;8.572;2022-09-28T10:53:11;11.10;;;6.95;;
7440;SDS011;29616;51.950;8.572;2022-09-28T10:56:01;10.07;;;6.35;;
7440;SDS011;29616;51.950;8.572;2022-09-28T10:58:35;11.60;;;6.50;;
7440;SDS011;29616;51.950;8.572;2022-09-28T11:01:09;10.38;;;5.97;;
7440;SDS011;29616;51.950;8.572;2022-09-28T11:03:48;8.93;;;4.90;;
7440;SDS011;29616;51.950;8.572;2022-09-28T11:06:22;8.93;;;5.32;;
7440;SDS011;29616;51.950;8.572;2022-09-28T11:11:24;9.80;;;6.00;;
7440;SDS011;29616;51.950;8.572;2022-09-28T11:14:00;9.60;;;4.97;;
7440;SDS011;29616;51.950;8.572;2022-09-28T11:16:34;5.97;;;3.78;;
7440;SDS011;29616;51.950;8.572;2022-09-28T11:19:21;5.50;;;3.58;;
7440;SDS011;29616;51.950;8.572;2022-09-28T11:21:54;6.07;;;4.10;;
7440;SDS011;29616;51.950;8.572;2022-09-28T11:24:32;6.35;;;3.63;;
7440;SDS011;29616;51.950;8.572;2022-09-28T11:27:02;6.72;;;4.07;;
7440;SDS011;29616;51.950;8.572;2022-09-28T11:29:33;6.35;;;3.70;;
7440;SDS011;29616;51.950;8.572;2022-09-28T11:32:27;8.38;;;4.00;;
7440;SDS011;29616;51.950;8.572;2022-09-28T11:35:19;5.60;;;3.80;;
7440;SDS011;29616;51.950;8.572;2022-09-28T11:38:01;7.85;;;4.25;;
7440;SDS011;29616;51.950;8.572;2022-09-28T11:41:07;5.90;;;3.70;;
7440;SDS011;29616;51.950;8.572;2022-09-28T11:43:55;7.03;;;4.45;;
7440;SDS011;29616;51.950;8.572;2022-09-28T11:46:46;9.52;;;4.72;;
7440;SDS011;29616;51.950;8.572;2022-09-28T11:49:29;10.88;;;5.57;;
7440;SDS011;29616;51.950;8.572;2022-09-28T11:52:07;7.22;;;3.72;;
7440;SDS011;29616;51.950;8.572;2022-09-28T11:54:44;7.68;;;5.00;;
7440;SDS011;29616;51.950;8.572;2022-09-28T11:57:19;8.73;;;5.38;;
7440;SDS011;29616;51.950;8.572;2022-09-28T11:59:55;8.38;;;5.60;;
7440;SDS011;29616;51.950;8.572;2022-09-28T12:02:30;6.75;;;4.78;;
7440;SDS011;29616;51.950;8.572;2022-09-28T12:05:12;7.65;;;5.03;;
7440;SDS011;29616;51.950;8.572;2022-09-28T12:07:51;7.05;;;5.10;;
7440;SDS011;29616;51.950;8.572;2022-09-28T12:10:49;8.02;;;5.63;;
7440;SDS011;29616;51.950;8.572;2022-09-28T12:13:44;6.03;;;4.40;;
7440;SDS011;29616;51.950;8.572;2022-09-28T12:16:15;6.57;;;4.55;;
7440;SDS011;29616;51.950;8.572;2022-09-28T12:19:11;5.55;;;3.97;;
7440;SDS011;29616;51.950;8.572;2022-09-28T12:21:46;5.63;;;4.68;;
7440;SDS011;29616;51.950;8.572;2022-09-28T12:24:20;8.55;;;4.90;;
7440;SDS011;29616;51.950;8.572;2022-09-28T12:26:55;9.25;;;5.32;;
7440;SDS011;29616;51.950;8.572;2022-09-28T12:29:31;7.35;;;4.93;;
7440;SDS011;29616;51.950;8.572;2022-09-28T12:32:09;7.28;;;5.07;;
7440;SDS011;29616;51.950;8.572;2022-09-28T12:34:49;6.57;;;4.88;;
7440;SDS011;29616;51.950;8.572;2022-09-28T12:37:22;8.50;;;5.47;;
7440;SDS011;29616;51.950;8.572;2022-09-28T12:40:14;4.90;;;4.07;;
7440;SDS011;29616;51.950;8.572;2022-09-28T12:43:09;6.13;;;4.75;;
7440;SDS011;29616;51.950;8.572;2022-09-28T12:46:15;9.15;;;6.10;;
7440;SDS011;29616;51.950;8.572;2022-09-28T12:52:24;7.93;;;5.13;;
7440;SDS011;29616;51.950;8.572;2022-09-28T12:55:06;9.30;;;5.10;;
7440;SDS011;29616;51.950;8.572;2022-09-28T12:57:56;9.65;;;5.65;;
7440;SDS011;29616;51.950;8.572;2022-09-28T13:00:35;7.20;;;4.80;;
7440;SDS011;29616;51.950;8.572;2022-09-28T13:06:22;8.80;;;4.82;;
7440;SDS011;29616;51.950;8.572;2022-09-28T13:09:03;7.20;;;4.53;;
7440;SDS011;29616;51.950;8.572;2022-09-28T13:11:51;7.78;;;5.07;;
7440;SDS011;29616;51.950;8.572;2022-09-28T13:14:44;9.98;;;4.57;;
7440;SDS011;29616;51.950;8.572;2022-09-28T13:17:52;9.20;;;5.10;;
7440;SDS011;29616;51.950;8.572;2022-09-28T13:20:36;10.68;;;5.65;;
7440;SDS011;29616;51.950;8.572;2022-09-28T13:25:48;10.20;;;5.35;;
7440;SDS011;29616;51.950;8.572;2022-09-28T13:28:22;11.98;;;5.85;;
7440;SDS011;29616;51.950;8.572;2022-09-28T13:30:53;10.82;;;5.68;;
7440;SDS011;29616;51.950;8.572;2022-09-28T13:33:27;11.13;;;5.85;;
7440;SDS011;29616;51.950;8.572;2022-09-28T13:36:01;10.07;;;6.45;;
7440;SDS011;29616;51.950;8.572;2022-09-28T13:38:43;10.48;;;6.05;;
7440;SDS011;29616;51.950;8.572;2022-09-28T13:41:16;10.95;;;5.97;;
7440;SDS011;29616;51.950;8.572;2022-09-28T13:50:28;8.85;;;5.35;;
7440;SDS011;29616;51.950;8.572;2022-09-28T13:53:08;6.82;;;4.93;;
7440;SDS011;29616;51.950;8.572;2022-09-28T13:55:49;10.10;;;4.55;;
7440;SDS011;29616;51.950;8.572;2022-09-28T13:58:27;6.10;;;3.60;;
7440;SDS011;29616;51.950;8.572;2022-09-28T14:01:00;6.60;;;3.60;;
7440;SDS011;29616;51.950;8.572;2022-09-28T14:06:23;8.18;;;4.03;;
7440;SDS011;29616;51.950;8.572;2022-09-28T14:09:05;6.28;;;4.32;;
7440;SDS011;29616;51.950;8.572;2022-09-28T14:11:53;9.18;;;4.70;;
7440;SDS011;29616;51.950;8.572;2022-09-28T14:14:45;7.80;;;4.13;;
7440;SDS011;29616;51.950;8.572;2022-09-28T14:20:25;7.05;;;3.90;;
7440;SDS011;29616;51.950;8.572;2022-09-28T14:23:01;8.20;;;4.28;;
7440;SDS011;29616;51.950;8.572;2022-09-28T14:26:11;7.55;;;4.32;;
7440;SDS011;29616;51.950;8.572;2022-09-28T14:29:24;7.68;;;4.43;;
7440;SDS011;29616;51.950;8.572;2022-09-28T14:31:55;9.63;;;3.80;;
7440;SDS011;29616;51.950;8.572;2022-09-28T14:34:29;9.25;;;4.65;;
7440;SDS011;29616;51.950;8.572;2022-09-28T14:37:01;10.35;;;4.88;;
7440;SDS011;29616;51.950;8.572;2022-09-28T14:40:07;9.32;;;3.95;;
7440;SDS011;29616;51.950;8.572;2022-09-28T14:43:17;7.15;;;4.45;;
7440;SDS011;29616;51.950;8.572;2022-09-28T14:49:02;8.68;;;4.82;;
7440;SDS011;29616;51.950;8.572;2022-09-28T14:51:59;7.50;;;4.28;;
7440;SDS011;29616;51.950;8.572;2022-09-28T14:54:48;4.50;;;3.35;;
7440;SDS011;29616;51.950;8.572;2022-09-28T14:57:21;5.95;;;3.78;;
7440;SDS011;29616;51.950;8.572;2022-09-28T14:59:52;6.43;;;3.72;;
7440;SDS011;29616;51.950;8.572;2022-09-28T15:02:26;7.55;;;3.83;;
7440;SDS011;29616;51.950;8.572;2022-09-28T15:05:00;9.10;;;3.92;;
7440;SDS011;29616;51.950;8.572;2022-09-28T15:07:43;6.78;;;3.85;;
7440;SDS011;29616;51.950;8.572;2022-09-28T15:10:20;6.47;;;3.50;;
7440;SDS011;29616;51.950;8.572;2022-09-28T15:12:53;6.13;;;3.72;;
7440;SDS011;29616;51.950;8.572;2022-09-28T15:15:26;7.07;;;3.28;;
7440;SDS011;29616;51.950;8.572;2022-09-28T15:18:06;5.68;;;3.60;;
7440;SDS011;29616;51.950;8.572;2022-09-28T15:21:00;4.80;;;3.33;;
7440;SDS011;29616;51.950;8.572;2022-09-28T15:23:34;4.97;;;3.63;;
7440;SDS011;29616;51.950;8.572;2022-09-28T15:26:04;5.30;;;3.33;;
7440;SDS011;29616;51.950;8.572;2022-09-28T15:28:35;6.60;;;3.50;;
7440;SDS011;29616;51.950;8.572;2022-09-28T15:31:15;7.60;;;3.78;;
7440;SDS011;29616;51.950;8.572;2022-09-28T15:33:45;5.20;;;2.78;;
7440;SDS011;29616;51.950;8.572;2022-09-28T15:36:32;3.75;;;2.80;;
7440;SDS011;29616;51.950;8.572;2022-09-28T15:39:08;4.43;;;3.00;;
7440;SDS011;29616;51.950;8.572;2022-09-28T15:41:40;5.20;;;2.88;;
7440;SDS011;29616;51.950;8.572;2022-09-28T15:44:19;3.38;;;3.08;;
7440;SDS011;29616;51.950;8.572;2022-09-28T15:47:05;6.10;;;2.67;;
7440;SDS011;29616;51.950;8.572;2022-09-28T15:49:40;4.83;;;3.03;;
7440;SDS011;29616;51.950;8.572;2022-09-28T15:52:23;4.57;;;2.90;;
7440;SDS011;29616;51.950;8.572;2022-09-28T15:55:00;4.10;;;2.70;;
7440;SDS011;29616;51.950;8.572;2022-09-28T15:57:33;5.97;;;3.08;;
7440;SDS011;29616;51.950;8.572;2022-09-28T16:00:05;7.22;;;3.33;;
7440;SDS011;29616;51.950;8.572;2022-09-28T16:03:10;6.50;;;2.90;;
7440;SDS011;29616;51.950;8.572;2022-09-28T16:05:50;6.03;;;2.75;;
7440;SDS011;29616;51.950;8.572;2022-09-28T16:08:36;6.38;;;2.95;;
7440;SDS011;29616;51.950;8.572;2022-09-28T16:11:11;6.10;;;3.67;;
7440;SDS011;29616;51.950;8.572;2022-09-28T16:13:47;3.85;;;2.70;;
7440;SDS011;29616;51.950;8.572;2022-09-28T16:16:28;6.38;;;3.00;;
7440;SDS011;29616;51.950;8.572;2022-09-28T16:19:00;6.60;;;3.10;;
7440;SDS011;29616;51.950;8.572;2022-09-28T16:21:41;8.00;;;3.55;;
7440;SDS011;29616;51.950;8.572;2022-09-28T16:24:21;5.72;;;3.03;;
7440;SDS011;29616;51.950;8.572;2022-09-28T16:26:55;8.52;;;3.05;;
7440;SDS011;29616;51.950;8.572;2022-09-28T16:29:31;4.63;;;2.75;;
7440;SDS011;29616;51.950;8.572;2022-09-28T16:35:13;9.30;;;3.83;;
7440;SDS011;29616;51.950;8.572;2022-09-28T16:37:47;7.43;;;3.70;;